Flight Track Log - Related Links

Times and Time Zones

All times are in EDT time to prevent confusion due to time zone crossing. See the SQH3312 flight status page for this flight to view local times or setup timezone preferences in your user account.

Time Position Orientation Groundspeed Altitude Reporting Facility
EDT Latitude Longitude Course Direction KTS MPH feet Rate Location/Type
06:46PM 45.5839 -122.6000 41° Northeast 106 122 500  Level Seattle Center
06:47PM 45.6139 -122.5630 24° Northeast 149 171 2,100 1,276 Climbing Seattle Center
06:48PM 45.6478 -122.5410 47° Northeast 154 177 3,200 1,241 Climbing Seattle Center
06:49PM 45.6781 -122.4950 56° Northeast 162 186 4,500 1,377 Climbing Seattle Center
06:50PM 45.7044 -122.4400 60° Northeast 163 188 6,000 1,300 Climbing Seattle Center
06:51PM 45.7242 -122.3900 59° Northeast 172 198 7,100 1,261 Climbing Seattle Center
06:52PM 45.7464 -122.3380 101° East 165 190 8,500 6,950 Climbing Seattle Center
06:53PM 45.7372 -122.2690 100° East 153 176 21,000 1,100 Climbing Seattle Center
06:54PM 45.7283 -122.2000 97° East 163 188 10,700 -4,550 Descending Seattle Center
06:55PM 45.7217 -122.1190 95° East 180 207 11,900 1,150 Climbing Seattle Center
06:56PM 45.7169 -122.0450 95° East 186 214 13,000 1,150 Climbing Seattle Center
06:57PM 45.7122 -121.9670 99° East 191 220 14,200 1,250 Climbing Seattle Center
06:58PM 45.7014 -121.8720 97° East 202 232 15,500 1,100 Climbing Seattle Center
06:59PM 45.6944 -121.7890 97° East 207 238 16,400 850 Climbing Seattle Center
07:00PM 45.6875 -121.7050 94° East 207 238 17,200 850 Climbing Seattle Center
07:01PM 45.6828 -121.6160 97° East 212 244 18,100 850 Climbing Seattle Center
07:02PM 45.6758 -121.5290 97° East 217 250 18,900 750 Climbing Seattle Center
07:03PM 45.6689 -121.4430 97° East 217 250 19,600 700 Climbing Seattle Center
07:04PM 45.6617 -121.3540 97° East 217 250 20,300 650 Climbing Seattle Center
07:05PM 45.6544 -121.2640 96° East 225 259 20,900 350 Climbing Seattle Center
07:06PM 45.6475 -121.1660 97° East 230 265 21,000 50 Climbing Seattle Center
07:07PM 45.6381 -121.0620 96° East 244 281 21,000  Level Seattle Center
07:08PM 45.6308 -120.9580 99° East 257 296 21,000  Level Seattle Center
07:09PM 45.6194 -120.8510 95° East 262 302 21,000  Level Seattle Center
07:10PM 45.6122 -120.7440 97° East 267 307 21,000  Level Seattle Center
07:11PM 45.6025 -120.6340 96° East 273 314 21,000  Level Seattle Center
07:12PM 45.5950 -120.5270 99° East 273 314 21,000  Level Seattle Center
07:13PM 45.5831 -120.4200 98° East 273 314 21,000  Level Seattle Center
07:14PM 45.5731 -120.3190 96° East 279 321 21,000  Level Seattle Center
07:15PM 45.5653 -120.2130 99° East 274 315 21,000  Level Seattle Center
07:16PM 45.5531 -120.1060 96° East 274 315 21,000  Level Seattle Center
07:17PM 45.5450 -119.9960 98° East 274 315 21,000 -100 Level Seattle Center
07:18PM 45.5347 -119.8890 98° East 274 315 20,800 -791 Descending Seattle Center
07:19PM 45.5286 -119.8240 79° East 280 322 19,800 -1,450 Descending Seattle Center
07:20PM 45.5494 -119.6640 73° East 279 321 17,900 -1,289 Descending Seattle Center
07:21PM 45.5722 -119.5540 73° East 279 321 16,600 -1,550 Descending Seattle Center
07:22PM 45.5947 -119.4480 70° East 279 321 14,800 -2,022 Descending Seattle Center
07:23PM 45.6111 -119.3820 77° East 276 318 13,500 -1,900 Descending Seattle Center
07:23PM 45.6172 -119.3440 73° East 279 321 12,900 -1,705 Descending Seattle Center
07:24PM 45.6378 -119.2460 52° Northeast 269 310 11,000 -2,050 Descending Seattle Center
07:25PM 45.6769 -119.1740 73° East 244 281 8,800 -2,350 Descending Seattle Center
07:26PM 45.6953 -119.0880 88° East 226 260 6,300 -2,543 Descending Seattle Center
07:27PM 45.6969 -119.0340 96° East 215 247 4,900 -1,700 Descending Seattle Center
07:27PM 45.6947 -119.0040 91° East 212 244 4,600 -955 Descending Seattle Center
07:28PM 45.6942 -118.9480 86° East 176 203 3,500 8,200 Descending Seattle Center
07:29PM 45.6978 -118.8680 91° East 176 203 21,000 8,750 Climbing Seattle Center
07:30PM 45.6972 -118.7990 91° East 176 203 21,000  Level Seattle Center
07:31PM 45.6967 -118.7340 91° East 176 203 21,000  Level Seattle Center
07:32PM 45.6961 -118.6660 360° North 176 203 21,000  Level Seattle Center
07:33PM 45.6961 -118.6660 360° North 176 203 21,000  Level Seattle Center
07:34PM 45.6961 -118.6660 360° North 176 203 21,000  Level Seattle Center
07:35PM 45.6961 -118.6660 360° North 176 203 21,000  Level Seattle Center
07:36PM 45.6961 -118.6660 360° North 176 203 21,000  Level Seattle Center
07:37PM 45.6961 -118.6660 360° North 176 203 21,000  Level Seattle Center

Login

Don't have an account? Register now (free) for customized features, flight alerts, and more!